Nearby METAR Reports

 

KLOM - Philly Wings F, Pennsylvania, USA
Distance from station: SW 6mi, 10km
Updated: Mon, 26-Jan-2015 4:55am EST
Overcast
Overcast
 Wind from ENE
Wind: ENE 9 mph , 15 km/h
Temperature: 28°F , -2°C
Wind Chill: 19°F , -7°C
Dew Point: 23°F , -5°C
Humidity: 80%
Barometer: 29.93 inHg , 1013.5 hPa
Clouds: Overcast
Visibility: 10 miles , 16 km
Cloud details: Overcast 1300 ft
2015/01/26 09:55 KLOM 260955Z AUTO 06008KT 020V080 10SM OVC013 M02/M05 A2993 RMK AO1
KDYL - Doylestown, Pennsylvania, USA
Distance from station: NNE 10mi, 17km
Updated: Mon, 26-Jan-2015 4:54am EST
Light snow, Mist, Overcast
Light snow, Mist, Overcast
 Wind from NE
Wind: NE 9 mph , 15 km/h
Temperature: 21°F , -6°C
Wind Chill: 11°F , -12°C
Dew Point: 19°F , -7°C
Humidity: 93%
Barometer: 29.93 inHg , 1013.5 hPa
Summary: Light snow, Mist
Clouds: Overcast
Visibility: 4 miles , 6 km
Cloud details: Few Clouds 1000 ft
Overcast 2700 ft
2015/01/26 09:54 KDYL 260954Z AUTO 04008KT 4SM -SN BR FEW010 OVC027 M06/M07 A2993 RMK AO2 SLP144 P0000 T10561067
KPNE - Philadelphia/Ne, Pennsylvania, USA
Distance from station: SE 11mi, 18km
Updated: Mon, 26-Jan-2015 4:54am EST
Overcast
Overcast
 Wind from NE
Wind: NE 13 mph , 20 km/h
Temperature: 28°F , -2°C
Wind Chill: 17°F , -8°C
Dew Point: 21°F , -6°C
Humidity: 74%
Barometer: 29.96 inHg , 1014.6 hPa
Clouds: Overcast
Visibility: 10 miles , 16 km
Cloud details: Overcast 3000 ft
2015/01/26 09:54 KPNE 260954Z AUTO 05011KT 10SM OVC030 M02/M06 A2996 RMK AO2 SLP146 T10171061 TSNO
 
KPTW - Pottstown, Pennsylvania, USA
Distance from station: W 20mi, 32km
Updated: Mon, 26-Jan-2015 4:54am EST
Light snow, Overcast
Light snow, Overcast
 Wind from ENE
Wind: ENE 12 mph , 19 km/h
Temperature: 25°F , -4°C
Wind Chill: 14°F , -10°C
Dew Point: 21°F , -6°C
Humidity: 86%
Barometer: 29.93 inHg , 1013.5 hPa
Summary: Light Snow
Clouds: Overcast
Visibility: 8 miles , 13 km
Cloud details: Few Clouds 1100 ft
Overcast 2700 ft
2015/01/26 09:54 KPTW 260954Z AUTO 06010KT 8SM -SN FEW011 OVC027 M04/M06 A2993 RMK AO2 SLP136 P0000 T10441061
KTTN - Trenton, New Jersey, USA
Distance from station: ENE 20mi, 32km
Updated: Mon, 26-Jan-2015 4:53am EST
Light snow, Overcast
Light snow, Overcast
 Wind from ENE
Wind: ENE 13 mph , 20 km/h
Temperature: 25°F , -4°C
Wind Chill: 13°F , -11°C
Dew Point: 19°F , -7°C
Humidity: 80%
Barometer: 29.95 inHg , 1014.2 hPa
Summary: Light Snow
Clouds: Overcast
Visibility: 5 miles , 8 km
Cloud details: Overcast 2800 ft
2015/01/26 09:53 KTTN 260953Z AUTO 06011KT 5SM -SN OVC028 M04/M07 A2995 RMK AO2 SLP138 P0000 T10391072
KUKT - Quakertown Arp, Pennsylvania, USA
Distance from station: NNW 20mi, 32km
Updated: Tue, 20-Jan-2015 9:45am EST
NOT Current
Clear
Clear
 Wind from calm
Wind: Calm
Temperature: 36°F , 2°C
Dew Point: 25°F , -4°C
Humidity: 65%
Barometer: 29.94 inHg , 1013.9 hPa
Clouds: Clear
Visibility: 10 miles , 16 km
2015/01/20 14:45 KUKT 201445Z AUTO 00000KT 10SM CLR 02/M04 A2994 RMK AO1
 
KPHL - Philadelphia, Pennsylvania, USA
Distance from station: S 22mi, 36km
Updated: Mon, 26-Jan-2015 5:02am EST
Light snow, Overcast
Light snow, Overcast
 Wind from ENE
Wind: ENE 13 mph , 20 km/h, Gust: 20 mph , 31 km/h
Temperature: 30°F , -1°C
Wind Chill: 20°F , -7°C
Dew Point: 23°F , -5°C
Humidity: 75%
Barometer: 29.93 inHg , 1013.5 hPa
Summary: Light Snow
Clouds: Overcast
Visibility: 10 miles , 16 km
Cloud details: Mostly cloudy 3900 ft
Overcast 5000 ft
2015/01/26 10:02 KPHL 261002Z 06011G17KT 10SM -SN BKN039 OVC050 M01/M05 A2993 RMK AO2 SNB01 P0000 T10061050
KVAY - Mount Holly, New Jersey, USA
Distance from station: SE 25mi, 41km
Updated: Mon, 26-Jan-2015 4:54am EST
Overcast
Overcast
 Wind from NE
Wind: NE 12 mph , 19 km/h
Temperature: 30°F , -1°C
Wind Chill: 20°F , -7°C
Dew Point: 21°F , -6°C
Humidity: 69%
Barometer: 29.94 inHg , 1013.9 hPa
Clouds: Overcast
Visibility: 10 miles , 16 km
Cloud details: Few Clouds 2200 ft
Partly cloudy 3000 ft
Overcast 5000 ft
2015/01/26 09:54 KVAY 260954Z AUTO 05010KT 10SM FEW022 SCT030 OVC050 M01/M06 A2994 RMK AO2 SLP140 T10111056
KXLL - Allentown Queen, Pennsylvania, USA
Distance from station: NNW 31mi, 49km
Updated: Mon, 26-Jan-2015 4:55am EST
Light snow, Overcast
Light snow, Overcast
 Wind from NE
Wind: NE 12 mph , 19 km/h
Temperature: 23°F , -5°C
Wind Chill: 11°F , -12°C
Dew Point: 19°F , -7°C
Humidity: 86%
Barometer: 29.95 inHg , 1014.2 hPa
Summary: Light Snow
Clouds: Overcast
Visibility: 2 1/2 miles , 2 km
Cloud details: Mostly cloudy 1000 ft
Overcast 1900 ft
2015/01/26 09:55 KXLL 260955Z AUTO 04010KT 2 1/2SM -SN BKN010 OVC019 M05/M07 A2995 RMK AO2
 
KWRI - Wrightst/Mcguire, New Jersey, USA
Distance from station: ESE 34mi, 54km
Updated: Mon, 26-Jan-2015 4:58am EST
Overcast
Overcast
 Wind from NE
Wind: NE 12 mph , 19 km/h
Temperature: 28°F , -2°C
Wind Chill: 18°F , -8°C
Dew Point: 23°F , -5°C
Humidity: 80%
Barometer: 29.92 inHg , 1013.2 hPa
Clouds: Overcast
Visibility: 10 miles , 16 km
Cloud details: Few Clouds 1900 ft
Partly cloudy 3000 ft
Overcast 4600 ft
2015/01/26 09:58 KWRI 260958Z 05010KT 10SM FEW019 SCT030 OVC046 M02/M05 A2992 RMK AO2A SLP136 T10181053
KABE - Allentown, Pennsylvania, USA
Distance from station: NNW 35mi, 56km
Updated: Mon, 26-Jan-2015 5:13am EST
Light snow, Overcast
Light snow, Overcast
 Wind from NE
Wind: NE 14 mph , 22 km/h
Temperature: 19°F , -7°C
Wind Chill: 5°F , -15°C
Dew Point: 16°F , -9°C
Humidity: 86%
Barometer: 29.95 inHg , 1014.2 hPa
Summary: Light Snow
Clouds: Overcast
Visibility: 2 miles , 3 km
Cloud details: Overcast 2900 ft
2015/01/26 10:13 KABE 261013Z 05012KT 2SM -SN OVC029 M07/M09 A2995 RMK AO2 P0000
KMQS - Coatesville, Pennsylvania, USA
Distance from station: WSW 39mi, 63km
Updated: Mon, 26-Jan-2015 4:55am EST
Overcast
Overcast
 Wind from ENE
Wind: ENE 9 mph , 15 km/h, Gust: 21 mph , 33 km/h
Temperature: 27°F , -3°C
Wind Chill: 18°F , -8°C
Dew Point: 25°F , -4°C
Humidity: 93%
Barometer: 29.88 inHg , 1011.9 hPa
Clouds: Overcast
Visibility: 10 miles , 16 km
Cloud details: Mostly cloudy 1000 ft
Overcast 4400 ft
2015/01/26 09:55 KMQS 260955Z AUTO 07008G18KT 10SM BKN010 OVC044 M03/M04 A2988 RMK AO2
 
KSMQ - Somerville, New Jersey, USA
Distance from station: NE 40mi, 64km
Updated: Mon, 26-Jan-2015 4:53am EST
Light snow, Overcast
Light snow, Overcast
 Wind from NE
Wind: NE 8 mph , 13 km/h
Temperature: 21°F , -6°C
Wind Chill: 11°F , -12°C
Dew Point: 16°F , -9°C
Humidity: 80%
Barometer: 29.98 inHg , 1015.2 hPa
Summary: Light Snow
Clouds: Overcast
Visibility: 2 1/2 miles , 2 km
Cloud details: Few Clouds 2200 ft
Overcast 3700 ft
2015/01/26 09:53 KSMQ 260953Z AUTO 05007KT 2 1/2SM -SN FEW022 OVC037 M06/M09 A2998 RMK AO2 SLP155 P0000 T10561094 TSNO
KILG - Wilmington, Delaware, USA
Distance from station: SSW 42mi, 68km
Updated: Mon, 26-Jan-2015 4:51am EST
Overcast
Overcast
 Wind from ENE
Wind: ENE 15 mph , 24 km/h
Temperature: 30°F , -1°C
Wind Chill: 19°F , -7°C
Dew Point: 23°F , -5°C
Humidity: 75%
Barometer: 29.91 inHg , 1012.9 hPa
Clouds: Overcast
Visibility: 10 miles , 16 km
Cloud details: Overcast 5000 ft
2015/01/26 09:51 KILG 260951Z AUTO 06013KT 10SM OVC050 M01/M05 A2991 RMK AO2 SLP129 T10061050
KRDG - Reading, Pennsylvania, USA
Distance from station: WNW 43mi, 70km
Updated: Mon, 26-Jan-2015 4:54am EST
Light snow, Mist, Overcast
Light snow, Mist, Overcast
 Wind from NE
Wind: NE 7 mph , 11 km/h
Temperature: 23°F , -5°C
Wind Chill: 15°F , -9°C
Dew Point: 19°F , -7°C
Humidity: 86%
Barometer: 29.91 inHg , 1012.9 hPa
Summary: Light snow, Mist
Clouds: Overcast
Visibility: 3 miles , 5 km
Cloud details: Few Clouds 1500 ft
Overcast 2800 ft
2015/01/26 09:54 KRDG 260954Z AUTO 05006KT 3SM -SN BR FEW015 OVC028 M05/M07 A2991 RMK AO2 SLP138 P0000 T10501067
 
KNEL - Lakehurst Nas, New Jersey, USA
Distance from station: ESE 46mi, 74km
Updated: Mon, 06-Oct-2014 4:00pm EDT
NOT Current
Clear
Clear
 Wind from S
Wind: S 15 mph , 24 km/h, Gust: 23 mph , 37 km/h
Temperature: 70°F , 21°C
Dew Point: 46°F , 8°C
Humidity: 43%
Barometer: 30.01 inHg , 1016.3 hPa
Clouds: Clear
Visibility: 10 miles , 16 km
2014/10/06 20:00 KNEL 062000Z AUTO 17013G20KT 10SM CLR 21/08 A3001 RMK AO2 SLP163 T02110083 $
KMJX - Toms River, New Jersey, USA
Distance from station: ESE 50mi, 80km
Updated: Mon, 26-Jan-2015 5:15am EST
Overcast
Overcast
 Wind from ENE
Wind: ENE 13 mph , 20 km/h, Gust: 21 mph , 33 km/h
Temperature: 30°F , -1°C
Wind Chill: 20°F , -7°C
Dew Point: 21°F , -6°C
Humidity: 69%
Barometer: 29.95 inHg , 1014.2 hPa
Clouds: Overcast
Visibility: 10 miles , 16 km
Cloud details: Few Clouds 3200 ft
Mostly cloudy 5500 ft
Overcast 7000 ft
2015/01/26 10:15 KMJX 261015Z AUTO 06011G18KT 10SM FEW032 BKN055 OVC070 M01/M06 A2995 RMK AO1